createdAt,value
2023-01-10T00:02:27.093Z,2.33
2023-01-10T00:17:29.560Z,2.97
2023-01-10T00:32:32.094Z,2.57
2023-01-10T00:47:34.623Z,2.97
2023-01-10T01:02:37.331Z,3.43
2023-01-10T01:17:39.802Z,2.63
2023-01-10T01:32:42.607Z,2.73
2023-01-10T01:47:51.062Z,3.43
2023-01-10T02:03:02.558Z,2.87
2023-01-10T02:18:06.128Z,3.17
2023-01-10T02:33:11.738Z,2.93
2023-01-10T02:48:15.895Z,2.87
2023-01-10T03:03:50.088Z,2.87
2023-01-10T03:18:57.830Z,3.47
2023-01-10T03:34:00.525Z,2.83
2023-01-10T03:49:05.435Z,3.23
2023-01-10T04:04:07.913Z,3.30
2023-01-10T04:19:10.385Z,4.10
2023-01-10T04:34:12.868Z,4.13
2023-01-10T04:49:15.377Z,4.10
2023-01-10T05:04:20.674Z,4.00
2023-01-10T05:19:23.447Z,3.63
2023-01-10T05:34:26.164Z,4.70
2023-01-10T05:49:28.654Z,3.73
2023-01-10T06:04:31.363Z,4.60
2023-01-10T06:19:34.103Z,4.10
2023-01-10T06:34:36.562Z,4.27
2023-01-10T06:49:39.224Z,4.30
2023-01-10T07:04:42.066Z,4.40
2023-01-10T07:19:44.565Z,4.20
2023-01-10T07:34:47.219Z,4.50
2023-01-10T07:49:49.776Z,4.37
2023-01-10T08:04:52.473Z,4.00
2023-01-10T08:19:54.886Z,4.43
2023-01-10T08:34:57.639Z,4.13
2023-01-10T08:50:00.276Z,3.47
2023-01-10T09:05:02.660Z,3.93
2023-01-10T09:20:09.804Z,3.87
2023-01-10T09:35:12.129Z,3.43
2023-01-10T09:50:23.479Z,3.67
2023-01-10T10:05:29.092Z,3.97
2023-01-10T10:20:51.654Z,3.83
2023-01-10T10:36:13.736Z,3.70
2023-01-10T10:51:37.416Z,3.20
2023-01-10T11:06:45.816Z,3.93
2023-01-10T11:22:00.578Z,3.27
2023-01-10T11:37:04.746Z,3.47
2023-01-10T11:52:21.358Z,3.50
2023-01-10T12:07:23.808Z,2.80
2023-01-10T12:22:45.955Z,3.17
2023-01-10T12:38:07.478Z,3.20
2023-01-10T12:53:28.298Z,3.17
2023-01-10T13:08:34.599Z,2.90
2023-01-10T13:23:50.047Z,3.27
2023-01-10T13:38:55.689Z,3.57
2023-01-10T13:54:03.372Z,2.67
2023-01-10T14:09:28.702Z,2.83
2023-01-10T14:24:42.008Z,2.90
2023-01-10T14:39:44.913Z,2.37
2023-01-10T14:54:55.573Z,2.90
2023-01-10T15:10:02.765Z,2.13
2023-01-10T15:25:07.953Z,2.00
2023-01-10T15:40:22.363Z,2.10
2023-01-10T15:55:50.133Z,1.70
2023-01-10T16:10:58.057Z,1.73
2023-01-10T16:26:03.653Z,1.27
2023-01-10T16:41:27.943Z,1.00
2023-01-10T16:56:30.619Z,1.10
2023-01-10T17:11:37.725Z,0.70
2023-01-10T17:26:40.183Z,0.90
2023-01-10T17:41:42.877Z,1.13
2023-01-10T17:56:45.345Z,1.00
2023-01-10T18:11:47.973Z,1.30
2023-01-10T18:26:50.640Z,1.13
2023-01-10T18:41:53.075Z,1.60
2023-01-10T18:56:56.477Z,1.27
2023-01-10T19:11:59.287Z,1.70
2023-01-10T19:27:01.729Z,0.90
2023-01-10T19:42:04.371Z,0.70
2023-01-10T19:57:08.214Z,0.60
2023-01-10T20:12:13.214Z,1.23
2023-01-10T20:27:17.686Z,1.90
2023-01-10T20:42:20.309Z,1.60
2023-01-10T20:57:22.776Z,0.97
2023-01-10T21:12:27.872Z,0.60
2023-01-10T21:27:31.254Z,0.70
2023-01-10T21:42:38.259Z,0.70
2023-01-10T21:57:40.738Z,0.67
2023-01-10T22:12:43.243Z,0.50
2023-01-10T22:27:45.717Z,1.10
2023-01-10T22:42:52.387Z,0.90
2023-01-10T22:57:54.936Z,0.70
2023-01-10T23:12:59.562Z,1.00
2023-01-10T23:28:01.933Z,0.60
2023-01-10T23:43:04.508Z,0.60
2023-01-10T23:58:06.887Z,0.33
